createdAt,value
2023-04-25T00:05:53.877Z,53.05
2023-04-25T00:16:01.508Z,52.97
2023-04-25T00:26:08.320Z,52.93
2023-04-25T00:36:15.776Z,52.85
2023-04-25T00:46:22.576Z,52.76
2023-04-25T00:56:30.575Z,52.70
2023-04-25T01:06:38.539Z,52.67
2023-04-25T01:16:45.291Z,52.65
2023-04-25T01:26:52.516Z,52.58
2023-04-25T01:36:59.796Z,52.50
2023-04-25T01:47:06.366Z,52.44
2023-04-25T01:57:13.609Z,52.40
2023-04-25T02:07:20.928Z,52.36
2023-04-25T02:17:28.018Z,52.33
2023-04-25T02:27:34.989Z,52.26
2023-04-25T02:37:42.226Z,52.23
2023-04-25T02:47:49.680Z,52.18
2023-04-25T02:57:57.118Z,52.11
2023-04-25T03:08:04.960Z,52.10
2023-04-25T03:18:11.858Z,52.07
2023-04-25T03:28:18.746Z,52.00
2023-04-25T03:38:26.290Z,51.96
2023-04-25T03:48:33.092Z,51.93
2023-04-25T03:58:40.596Z,51.87
2023-04-25T04:08:47.058Z,51.86
2023-04-25T04:18:54.357Z,51.84
2023-04-25T04:29:01.435Z,51.84
2023-04-25T04:39:08.478Z,51.83
2023-04-25T04:49:15.194Z,51.80
2023-04-25T04:59:22.898Z,51.83
2023-04-25T05:09:30.170Z,51.85
2023-04-25T05:19:37.297Z,50.67
2023-04-25T05:29:44.229Z,50.90
2023-04-25T05:39:51.306Z,51.48
2023-04-25T05:49:58.401Z,51.59
2023-04-25T06:00:05.385Z,51.36
2023-04-25T06:10:12.695Z,50.92
2023-04-25T06:20:19.531Z,50.50
2023-04-25T06:30:25.704Z,50.21
2023-04-25T06:40:32.990Z,49.78
2023-04-25T06:50:39.889Z,49.52
2023-04-25T07:00:47.107Z,49.04
2023-04-25T07:10:54.286Z,47.42
2023-04-25T07:21:01.490Z,45.85
2023-04-25T07:31:08.998Z,45.87
2023-04-25T07:41:16.080Z,45.89
2023-04-25T07:51:23.039Z,47.44
2023-04-25T08:01:30.062Z,48.85
2023-04-25T08:11:37.007Z,49.56
2023-04-25T08:21:44.118Z,49.40
2023-04-25T08:31:51.632Z,49.22
2023-04-25T08:41:59.490Z,48.87
2023-04-25T08:52:06.571Z,48.61
2023-04-25T09:02:13.897Z,47.08
2023-04-25T09:12:21.798Z,47.98
2023-04-25T09:22:29.405Z,45.08
2023-04-25T09:32:36.503Z,45.76
2023-04-25T09:42:43.886Z,47.29
2023-04-25T09:52:50.738Z,46.02
2023-04-25T10:02:58.058Z,41.13
2023-04-25T10:13:06.278Z,40.10
2023-04-25T10:23:12.788Z,43.28
2023-04-25T10:33:20.000Z,42.87
2023-04-25T10:43:26.896Z,43.59
2023-04-25T10:53:34.105Z,43.13
2023-04-25T11:03:41.201Z,44.82
2023-04-25T11:13:48.019Z,34.16
2023-04-25T11:23:55.461Z,41.86
2023-04-25T11:34:02.772Z,41.92
2023-04-25T11:44:10.163Z,43.38
2023-04-25T11:54:17.267Z,44.65
2023-04-25T12:04:24.560Z,45.18
2023-04-25T12:14:32.435Z,44.30
2023-04-25T12:24:39.742Z,45.08
2023-04-25T12:34:47.335Z,45.76
2023-04-25T12:44:54.281Z,44.37
2023-04-25T12:55:01.244Z,45.40
2023-04-25T13:05:08.408Z,45.37
2023-04-25T13:15:15.223Z,45.21
2023-04-25T13:25:22.400Z,45.05
2023-04-25T13:35:29.807Z,38.55
2023-04-25T13:45:36.733Z,41.92
2023-04-25T13:55:44.300Z,39.40
2023-04-25T14:05:51.335Z,42.32
2023-04-25T14:15:58.734Z,42.97
2023-04-25T14:26:06.056Z,43.10
2023-04-25T14:36:12.988Z,43.05
2023-04-25T14:46:20.375Z,43.02
2023-04-25T14:56:27.814Z,42.96
2023-04-25T15:06:34.964Z,42.88
2023-04-25T15:16:42.134Z,42.90
2023-04-25T15:26:49.464Z,42.81
2023-04-25T15:36:56.739Z,42.58
2023-04-25T15:47:04.553Z,37.15
2023-04-25T15:57:12.324Z,31.45
2023-04-25T16:07:19.491Z,37.50
2023-04-25T16:17:26.220Z,39.54
2023-04-25T16:27:34.406Z,34.62
2023-04-25T16:37:41.303Z,32.89
2023-04-25T16:47:48.828Z,38.01
2023-04-25T16:57:56.290Z,39.82
2023-04-25T17:08:03.943Z,40.62
2023-04-25T17:18:10.652Z,41.64
2023-04-25T17:28:17.474Z,42.17
2023-04-25T17:38:24.644Z,42.46
2023-04-25T17:48:32.065Z,42.68
2023-04-25T17:58:38.416Z,43.07
2023-04-25T18:08:45.729Z,44.00
2023-04-25T18:18:53.241Z,44.51
2023-04-25T18:29:01.105Z,44.66
2023-04-25T18:39:19.438Z,44.94
2023-04-25T18:49:20.341Z,45.11
2023-04-25T18:59:26.935Z,45.19
2023-04-25T19:09:33.159Z,45.36
2023-04-25T19:19:40.184Z,45.44
2023-04-25T19:29:47.262Z,45.55
2023-04-25T19:39:54.328Z,45.63
2023-04-25T19:50:01.371Z,45.65
2023-04-25T20:00:08.469Z,45.75
2023-04-25T20:10:15.494Z,45.85
2023-04-25T20:20:23.886Z,45.94
2023-04-25T20:30:30.789Z,45.92
2023-04-25T20:40:37.952Z,45.92
2023-04-25T20:50:44.500Z,46.08
2023-04-25T21:00:51.956Z,46.13
2023-04-25T21:10:59.447Z,46.22
2023-04-25T21:21:06.745Z,46.18
2023-04-25T21:31:14.039Z,46.22
2023-04-25T21:41:21.536Z,46.29
2023-04-25T21:51:29.097Z,46.29
2023-04-25T22:01:36.570Z,46.31
2023-04-25T22:11:43.850Z,46.32
2023-04-25T22:21:51.293Z,46.42
2023-04-25T22:31:58.010Z,46.40
2023-04-25T22:42:05.069Z,46.29
2023-04-25T22:52:12.061Z,46.26
2023-04-25T23:02:19.351Z,46.18
2023-04-25T23:12:26.094Z,46.14
2023-04-25T23:22:33.325Z,46.03
2023-04-25T23:32:40.129Z,45.96
2023-04-25T23:42:47.212Z,45.91
2023-04-25T23:52:54.082Z,45.91
